sensor_id;sensor_type;location;lat;lon;timestamp;P1;durP1;ratioP1;P2;durP2;ratioP2
28910;SDS011;16028;42.642;23.310;2023-05-25T00:00:16;9.13;;;5.97;;
28910;SDS011;16028;42.642;23.310;2023-05-25T00:02:44;8.05;;;6.63;;
28910;SDS011;16028;42.642;23.310;2023-05-25T00:05:12;8.88;;;6.15;;
28910;SDS011;16028;42.642;23.310;2023-05-25T00:07:39;9.48;;;6.35;;
28910;SDS011;16028;42.642;23.310;2023-05-25T00:10:06;7.75;;;5.55;;
28910;SDS011;16028;42.642;23.310;2023-05-25T00:12:33;8.45;;;6.22;;
28910;SDS011;16028;42.642;23.310;2023-05-25T00:15:01;12.70;;;7.60;;
28910;SDS011;16028;42.642;23.310;2023-05-25T00:17:30;9.00;;;6.55;;
28910;SDS011;16028;42.642;23.310;2023-05-25T00:19:58;7.10;;;6.10;;
28910;SDS011;16028;42.642;23.310;2023-05-25T00:22:32;9.23;;;6.25;;
28910;SDS011;16028;42.642;23.310;2023-05-25T00:24:59;8.85;;;6.60;;
28910;SDS011;16028;42.642;23.310;2023-05-25T00:27:25;9.48;;;6.57;;
28910;SDS011;16028;42.642;23.310;2023-05-25T00:29:52;7.97;;;6.63;;
28910;SDS011;16028;42.642;23.310;2023-05-25T00:32:19;15.77;;;6.20;;
28910;SDS011;16028;42.642;23.310;2023-05-25T00:34:47;10.10;;;7.30;;
28910;SDS011;16028;42.642;23.310;2023-05-25T00:37:14;9.00;;;7.32;;
28910;SDS011;16028;42.642;23.310;2023-05-25T00:39:41;14.15;;;7.28;;
28910;SDS011;16028;42.642;23.310;2023-05-25T00:42:08;11.90;;;7.95;;
28910;SDS011;16028;42.642;23.310;2023-05-25T00:44:35;10.93;;;7.78;;
28910;SDS011;16028;42.642;23.310;2023-05-25T00:47:03;13.48;;;8.20;;
28910;SDS011;16028;42.642;23.310;2023-05-25T00:49:30;14.88;;;8.13;;
28910;SDS011;16028;42.642;23.310;2023-05-25T00:52:02;10.77;;;7.75;;
28910;SDS011;16028;42.642;23.310;2023-05-25T00:54:31;11.95;;;8.60;;
28910;SDS011;16028;42.642;23.310;2023-05-25T00:57:00;13.93;;;8.60;;
28910;SDS011;16028;42.642;23.310;2023-05-25T00:59:32;13.52;;;7.72;;
28910;SDS011;16028;42.642;23.310;2023-05-25T01:02:06;12.23;;;8.10;;
28910;SDS011;16028;42.642;23.310;2023-05-25T01:04:34;9.77;;;7.82;;
28910;SDS011;16028;42.642;23.310;2023-05-25T01:07:05;13.65;;;8.50;;
28910;SDS011;16028;42.642;23.310;2023-05-25T01:09:37;10.55;;;7.63;;
28910;SDS011;16028;42.642;23.310;2023-05-25T01:12:06;13.20;;;8.07;;
28910;SDS011;16028;42.642;23.310;2023-05-25T01:14:36;11.23;;;7.60;;
28910;SDS011;16028;42.642;23.310;2023-05-25T01:17:04;8.30;;;7.00;;
28910;SDS011;16028;42.642;23.310;2023-05-25T01:19:31;9.93;;;7.35;;
28910;SDS011;16028;42.642;23.310;2023-05-25T01:22:02;10.35;;;7.75;;
28910;SDS011;16028;42.642;23.310;2023-05-25T01:24:33;12.05;;;7.88;;
28910;SDS011;16028;42.642;23.310;2023-05-25T01:27:07;8.70;;;7.30;;
28910;SDS011;16028;42.642;23.310;2023-05-25T01:29:39;9.50;;;6.60;;
28910;SDS011;16028;42.642;23.310;2023-05-25T01:32:08;7.38;;;6.07;;
28910;SDS011;16028;42.642;23.310;2023-05-25T01:34:36;11.35;;;7.50;;
28910;SDS011;16028;42.642;23.310;2023-05-25T01:37:06;10.95;;;6.85;;
28910;SDS011;16028;42.642;23.310;2023-05-25T01:39:33;7.72;;;5.90;;
28910;SDS011;16028;42.642;23.310;2023-05-25T01:42:00;10.38;;;7.10;;
28910;SDS011;16028;42.642;23.310;2023-05-25T01:44:27;8.98;;;6.55;;
28910;SDS011;16028;42.642;23.310;2023-05-25T01:47:02;12.45;;;6.50;;
28910;SDS011;16028;42.642;23.310;2023-05-25T01:49:35;8.27;;;6.55;;
28910;SDS011;16028;42.642;23.310;2023-05-25T01:52:14;7.43;;;6.40;;
28910;SDS011;16028;42.642;23.310;2023-05-25T01:54:46;8.55;;;6.45;;
28910;SDS011;16028;42.642;23.310;2023-05-25T01:57:17;11.90;;;7.00;;
28910;SDS011;16028;42.642;23.310;2023-05-25T01:59:46;10.73;;;7.15;;
28910;SDS011;16028;42.642;23.310;2023-05-25T02:02:13;8.57;;;7.43;;
28910;SDS011;16028;42.642;23.310;2023-05-25T02:04:42;9.85;;;6.60;;
28910;SDS011;16028;42.642;23.310;2023-05-25T02:07:09;11.73;;;6.55;;
28910;SDS011;16028;42.642;23.310;2023-05-25T02:09:38;9.65;;;7.07;;
28910;SDS011;16028;42.642;23.310;2023-05-25T02:12:05;9.43;;;6.55;;
28910;SDS011;16028;42.642;23.310;2023-05-25T02:14:32;8.75;;;5.38;;
28910;SDS011;16028;42.642;23.310;2023-05-25T02:16:59;7.00;;;5.47;;
28910;SDS011;16028;42.642;23.310;2023-05-25T02:19:27;7.85;;;5.93;;
28910;SDS011;16028;42.642;23.310;2023-05-25T02:21:55;11.38;;;6.05;;
28910;SDS011;16028;42.642;23.310;2023-05-25T02:24:22;10.13;;;6.20;;
28910;SDS011;16028;42.642;23.310;2023-05-25T02:26:51;8.02;;;6.43;;
28910;SDS011;16028;42.642;23.310;2023-05-25T02:29:18;8.65;;;5.93;;
28910;SDS011;16028;42.642;23.310;2023-05-25T02:31:45;10.27;;;6.40;;
28910;SDS011;16028;42.642;23.310;2023-05-25T02:34:12;9.20;;;5.75;;
28910;SDS011;16028;42.642;23.310;2023-05-25T02:36:39;9.23;;;5.88;;
28910;SDS011;16028;42.642;23.310;2023-05-25T02:39:07;8.45;;;5.97;;
28910;SDS011;16028;42.642;23.310;2023-05-25T02:41:35;9.82;;;6.47;;
28910;SDS011;16028;42.642;23.310;2023-05-25T02:44:04;7.93;;;6.25;;
28910;SDS011;16028;42.642;23.310;2023-05-25T02:46:31;15.57;;;6.95;;
28910;SDS011;16028;42.642;23.310;2023-05-25T02:48:58;8.90;;;7.55;;
28910;SDS011;16028;42.642;23.310;2023-05-25T02:51:25;11.98;;;6.80;;
28910;SDS011;16028;42.642;23.310;2023-05-25T02:53:52;9.43;;;6.80;;
28910;SDS011;16028;42.642;23.310;2023-05-25T02:56:19;12.50;;;6.68;;
28910;SDS011;16028;42.642;23.310;2023-05-25T02:58:46;10.63;;;7.53;;
28910;SDS011;16028;42.642;23.310;2023-05-25T03:01:15;15.65;;;8.98;;
28910;SDS011;16028;42.642;23.310;2023-05-25T03:03:43;8.80;;;7.03;;
28910;SDS011;16028;42.642;23.310;2023-05-25T03:06:10;11.60;;;6.80;;
28910;SDS011;16028;42.642;23.310;2023-05-25T03:08:38;15.18;;;7.20;;
28910;SDS011;16028;42.642;23.310;2023-05-25T03:11:08;12.18;;;7.10;;
28910;SDS011;16028;42.642;23.310;2023-05-25T03:13:35;8.40;;;6.45;;
28910;SDS011;16028;42.642;23.310;2023-05-25T03:16:01;15.48;;;6.90;;
28910;SDS011;16028;42.642;23.310;2023-05-25T03:18:30;9.57;;;6.90;;
28910;SDS011;16028;42.642;23.310;2023-05-25T03:20:56;9.25;;;7.25;;
28910;SDS011;16028;42.642;23.310;2023-05-25T03:23:23;9.30;;;6.63;;
28910;SDS011;16028;42.642;23.310;2023-05-25T03:25:50;10.70;;;6.68;;
28910;SDS011;16028;42.642;23.310;2023-05-25T03:28:18;9.35;;;7.35;;
28910;SDS011;16028;42.642;23.310;2023-05-25T03:30:45;12.85;;;7.07;;
28910;SDS011;16028;42.642;23.310;2023-05-25T03:33:12;13.88;;;6.80;;
28910;SDS011;16028;42.642;23.310;2023-05-25T03:35:41;14.60;;;7.47;;
28910;SDS011;16028;42.642;23.310;2023-05-25T03:38:08;8.88;;;6.93;;
28910;SDS011;16028;42.642;23.310;2023-05-25T03:40:35;11.10;;;7.55;;
28910;SDS011;16028;42.642;23.310;2023-05-25T03:43:05;9.35;;;7.13;;
28910;SDS011;16028;42.642;23.310;2023-05-25T03:45:31;13.15;;;6.93;;
28910;SDS011;16028;42.642;23.310;2023-05-25T03:47:58;9.38;;;6.40;;
28910;SDS011;16028;42.642;23.310;2023-05-25T03:50:25;10.77;;;6.78;;
28910;SDS011;16028;42.642;23.310;2023-05-25T03:52:53;11.35;;;6.65;;
28910;SDS011;16028;42.642;23.310;2023-05-25T03:55:20;9.38;;;6.70;;
28910;SDS011;16028;42.642;23.310;2023-05-25T03:57:47;14.70;;;8.00;;
28910;SDS011;16028;42.642;23.310;2023-05-25T04:00:14;12.65;;;8.82;;
28910;SDS011;16028;42.642;23.310;2023-05-25T04:02:41;11.18;;;8.27;;
28910;SDS011;16028;42.642;23.310;2023-05-25T04:05:08;11.38;;;9.07;;
28910;SDS011;16028;42.642;23.310;2023-05-25T04:07:35;11.73;;;8.88;;
28910;SDS011;16028;42.642;23.310;2023-05-25T04:10:04;13.07;;;9.57;;
28910;SDS011;16028;42.642;23.310;2023-05-25T04:12:31;14.27;;;8.43;;
28910;SDS011;16028;42.642;23.310;2023-05-25T04:14:58;12.45;;;7.47;;
28910;SDS011;16028;42.642;23.310;2023-05-25T04:17:25;14.27;;;7.88;;
28910;SDS011;16028;42.642;23.310;2023-05-25T04:19:52;11.18;;;7.47;;
28910;SDS011;16028;42.642;23.310;2023-05-25T04:22:19;18.25;;;10.05;;
28910;SDS011;16028;42.642;23.310;2023-05-25T04:24:45;23.85;;;10.90;;
28910;SDS011;16028;42.642;23.310;2023-05-25T04:27:14;16.55;;;11.02;;
28910;SDS011;16028;42.642;23.310;2023-05-25T04:29:40;14.07;;;10.60;;
28910;SDS011;16028;42.642;23.310;2023-05-25T04:32:08;17.30;;;11.60;;
28910;SDS011;16028;42.642;23.310;2023-05-25T04:34:35;19.70;;;11.45;;
28910;SDS011;16028;42.642;23.310;2023-05-25T04:37:03;17.27;;;12.15;;
28910;SDS011;16028;42.642;23.310;2023-05-25T04:39:32;17.13;;;12.25;;
28910;SDS011;16028;42.642;23.310;2023-05-25T04:41:59;17.65;;;13.00;;
28910;SDS011;16028;42.642;23.310;2023-05-25T04:44:29;24.58;;;12.25;;
28910;SDS011;16028;42.642;23.310;2023-05-25T04:46:56;18.52;;;12.07;;
28910;SDS011;16028;42.642;23.310;2023-05-25T04:49:25;14.48;;;11.00;;
28910;SDS011;16028;42.642;23.310;2023-05-25T04:51:52;16.15;;;11.38;;
28910;SDS011;16028;42.642;23.310;2023-05-25T04:54:19;15.70;;;11.38;;
28910;SDS011;16028;42.642;23.310;2023-05-25T04:56:46;14.00;;;10.93;;
28910;SDS011;16028;42.642;23.310;2023-05-25T04:59:12;15.55;;;9.88;;
28910;SDS011;16028;42.642;23.310;2023-05-25T05:01:41;14.73;;;9.20;;
28910;SDS011;16028;42.642;23.310;2023-05-25T05:04:08;11.57;;;9.13;;
28910;SDS011;16028;42.642;23.310;2023-05-25T05:06:35;17.02;;;10.50;;
28910;SDS011;16028;42.642;23.310;2023-05-25T05:09:03;13.15;;;9.45;;
28910;SDS011;16028;42.642;23.310;2023-05-25T05:11:30;16.33;;;9.88;;
28910;SDS011;16028;42.642;23.310;2023-05-25T05:13:57;20.85;;;9.98;;
28910;SDS011;16028;42.642;23.310;2023-05-25T05:16:24;17.40;;;10.20;;
28910;SDS011;16028;42.642;23.310;2023-05-25T05:18:52;21.33;;;11.60;;
28910;SDS011;16028;42.642;23.310;2023-05-25T05:21:19;18.42;;;11.43;;
28910;SDS011;16028;42.642;23.310;2023-05-25T05:23:46;23.42;;;11.18;;
28910;SDS011;16028;42.642;23.310;2023-05-25T05:26:12;17.00;;;10.95;;
28910;SDS011;16028;42.642;23.310;2023-05-25T05:28:39;13.60;;;9.57;;
28910;SDS011;16028;42.642;23.310;2023-05-25T05:31:09;16.33;;;10.82;;
28910;SDS011;16028;42.642;23.310;2023-05-25T05:33:36;14.02;;;9.93;;
28910;SDS011;16028;42.642;23.310;2023-05-25T05:36:05;16.98;;;9.57;;
28910;SDS011;16028;42.642;23.310;2023-05-25T05:38:32;16.55;;;10.43;;
28910;SDS011;16028;42.642;23.310;2023-05-25T05:40:59;19.20;;;11.18;;
28910;SDS011;16028;42.642;23.310;2023-05-25T05:43:26;25.20;;;11.40;;
28910;SDS011;16028;42.642;23.310;2023-05-25T05:45:53;24.88;;;13.10;;
28910;SDS011;16028;42.642;23.310;2023-05-25T05:48:20;27.02;;;12.52;;
28910;SDS011;16028;42.642;23.310;2023-05-25T05:50:47;19.30;;;11.75;;
28910;SDS011;16028;42.642;23.310;2023-05-25T05:53:15;24.10;;;12.57;;
28910;SDS011;16028;42.642;23.310;2023-05-25T05:55:42;18.00;;;11.50;;
28910;SDS011;16028;42.642;23.310;2023-05-25T05:58:09;20.52;;;12.18;;
28910;SDS011;16028;42.642;23.310;2023-05-25T06:00:36;20.08;;;11.88;;
28910;SDS011;16028;42.642;23.310;2023-05-25T06:03:03;18.40;;;12.40;;
28910;SDS011;16028;42.642;23.310;2023-05-25T06:05:30;15.77;;;11.80;;
28910;SDS011;16028;42.642;23.310;2023-05-25T06:07:56;18.17;;;11.88;;
28910;SDS011;16028;42.642;23.310;2023-05-25T06:10:25;25.08;;;12.15;;
28910;SDS011;16028;42.642;23.310;2023-05-25T06:12:52;20.42;;;12.02;;
28910;SDS011;16028;42.642;23.310;2023-05-25T06:15:18;19.08;;;13.75;;
28910;SDS011;16028;42.642;23.310;2023-05-25T06:17:48;19.88;;;14.13;;
28910;SDS011;16028;42.642;23.310;2023-05-25T06:20:15;20.00;;;13.02;;
28910;SDS011;16028;42.642;23.310;2023-05-25T06:22:42;24.98;;;12.48;;
28910;SDS011;16028;42.642;23.310;2023-05-25T06:25:09;26.92;;;13.07;;
28910;SDS011;16028;42.642;23.310;2023-05-25T06:27:37;17.58;;;11.20;;
28910;SDS011;16028;42.642;23.310;2023-05-25T06:30:04;24.63;;;13.02;;
28910;SDS011;16028;42.642;23.310;2023-05-25T06:32:32;15.60;;;10.40;;
28910;SDS011;16028;42.642;23.310;2023-05-25T06:34:59;13.45;;;10.52;;
28910;SDS011;16028;42.642;23.310;2023-05-25T06:37:26;18.60;;;11.23;;
28910;SDS011;16028;42.642;23.310;2023-05-25T06:39:59;19.48;;;10.38;;
28910;SDS011;16028;42.642;23.310;2023-05-25T06:42:25;18.88;;;11.30;;
28910;SDS011;16028;42.642;23.310;2023-05-25T06:44:54;20.50;;;11.50;;
28910;SDS011;16028;42.642;23.310;2023-05-25T06:47:20;14.40;;;10.95;;
28910;SDS011;16028;42.642;23.310;2023-05-25T06:49:48;17.60;;;11.35;;
28910;SDS011;16028;42.642;23.310;2023-05-25T06:52:15;10.48;;;8.85;;
28910;SDS011;16028;42.642;23.310;2023-05-25T06:54:41;12.55;;;8.30;;
28910;SDS011;16028;42.642;23.310;2023-05-25T06:57:08;17.50;;;9.13;;
28910;SDS011;16028;42.642;23.310;2023-05-25T06:59:35;12.50;;;9.15;;
28910;SDS011;16028;42.642;23.310;2023-05-25T07:02:03;20.48;;;8.45;;
28910;SDS011;16028;42.642;23.310;2023-05-25T07:04:30;21.02;;;8.90;;
28910;SDS011;16028;42.642;23.310;2023-05-25T07:06:58;20.25;;;11.15;;
28910;SDS011;16028;42.642;23.310;2023-05-25T07:09:25;18.80;;;8.50;;
28910;SDS011;16028;42.642;23.310;2023-05-25T07:11:52;13.85;;;8.57;;
28910;SDS011;16028;42.642;23.310;2023-05-25T07:14:19;13.90;;;8.48;;
28910;SDS011;16028;42.642;23.310;2023-05-25T07:16:46;11.63;;;8.30;;
28910;SDS011;16028;42.642;23.310;2023-05-25T07:19:14;10.70;;;8.02;;
28910;SDS011;16028;42.642;23.310;2023-05-25T07:21:41;10.90;;;7.35;;
28910;SDS011;16028;42.642;23.310;2023-05-25T07:24:08;8.70;;;7.60;;
28910;SDS011;16028;42.642;23.310;2023-05-25T07:26:35;8.55;;;7.30;;
28910;SDS011;16028;42.642;23.310;2023-05-25T07:29:02;11.45;;;7.20;;
28910;SDS011;16028;42.642;23.310;2023-05-25T07:31:29;12.20;;;7.82;;
28910;SDS011;16028;42.642;23.310;2023-05-25T07:33:56;14.02;;;8.00;;
28910;SDS011;16028;42.642;23.310;2023-05-25T07:36:26;8.88;;;6.78;;
28910;SDS011;16028;42.642;23.310;2023-05-25T07:38:53;11.63;;;6.55;;
28910;SDS011;16028;42.642;23.310;2023-05-25T07:41:20;11.27;;;6.82;;
28910;SDS011;16028;42.642;23.310;2023-05-25T07:43:47;8.55;;;6.60;;
28910;SDS011;16028;42.642;23.310;2023-05-25T07:46:14;8.25;;;5.88;;
28910;SDS011;16028;42.642;23.310;2023-05-25T07:48:41;9.50;;;6.28;;
28910;SDS011;16028;42.642;23.310;2023-05-25T07:51:08;7.70;;;5.25;;
28910;SDS011;16028;42.642;23.310;2023-05-25T07:53:36;9.10;;;5.78;;
28910;SDS011;16028;42.642;23.310;2023-05-25T07:56:03;13.80;;;5.40;;
28910;SDS011;16028;42.642;23.310;2023-05-25T07:58:30;10.88;;;5.53;;
28910;SDS011;16028;42.642;23.310;2023-05-25T08:00:57;9.10;;;5.72;;
28910;SDS011;16028;42.642;23.310;2023-05-25T08:03:23;10.93;;;6.35;;
28910;SDS011;16028;42.642;23.310;2023-05-25T08:05:50;13.77;;;6.35;;
28910;SDS011;16028;42.642;23.310;2023-05-25T08:08:18;15.57;;;6.03;;
28910;SDS011;16028;42.642;23.310;2023-05-25T08:10:51;12.15;;;5.57;;
28910;SDS011;16028;42.642;23.310;2023-05-25T08:13:17;8.93;;;5.80;;
28910;SDS011;16028;42.642;23.310;2023-05-25T08:15:44;20.25;;;5.78;;
28910;SDS011;16028;42.642;23.310;2023-05-25T08:18:13;10.25;;;5.18;;
28910;SDS011;16028;42.642;23.310;2023-05-25T08:20:40;10.05;;;5.30;;
28910;SDS011;16028;42.642;23.310;2023-05-25T08:23:07;6.45;;;5.13;;
28910;SDS011;16028;42.642;23.310;2023-05-25T08:25:34;10.35;;;5.88;;
28910;SDS011;16028;42.642;23.310;2023-05-25T08:28:02;10.77;;;5.90;;
28910;SDS011;16028;42.642;23.310;2023-05-25T08:30:29;20.40;;;8.95;;
28910;SDS011;16028;42.642;23.310;2023-05-25T08:32:56;17.63;;;9.55;;
28910;SDS011;16028;42.642;23.310;2023-05-25T08:35:23;17.23;;;10.25;;
28910;SDS011;16028;42.642;23.310;2023-05-25T08:37:50;14.75;;;8.70;;
28910;SDS011;16028;42.642;23.310;2023-05-25T08:40:17;13.13;;;8.95;;
28910;SDS011;16028;42.642;23.310;2023-05-25T08:42:47;14.55;;;7.90;;
28910;SDS011;16028;42.642;23.310;2023-05-25T08:45:16;16.15;;;7.50;;
28910;SDS011;16028;42.642;23.310;2023-05-25T08:47:43;10.20;;;5.85;;
28910;SDS011;16028;42.642;23.310;2023-05-25T08:50:11;12.10;;;6.90;;
28910;SDS011;16028;42.642;23.310;2023-05-25T08:52:39;11.55;;;7.15;;
28910;SDS011;16028;42.642;23.310;2023-05-25T08:55:10;9.75;;;6.78;;
28910;SDS011;16028;42.642;23.310;2023-05-25T08:57:41;14.98;;;7.35;;
28910;SDS011;16028;42.642;23.310;2023-05-25T09:00:12;16.35;;;8.20;;
28910;SDS011;16028;42.642;23.310;2023-05-25T09:02:46;13.95;;;7.18;;
28910;SDS011;16028;42.642;23.310;2023-05-25T09:05:16;13.40;;;7.40;;
28910;SDS011;16028;42.642;23.310;2023-05-25T09:07:44;9.82;;;6.93;;
28910;SDS011;16028;42.642;23.310;2023-05-25T09:10:11;7.53;;;5.10;;
28910;SDS011;16028;42.642;23.310;2023-05-25T09:12:40;5.53;;;4.57;;
28910;SDS011;16028;42.642;23.310;2023-05-25T09:15:09;11.20;;;5.72;;
28910;SDS011;16028;42.642;23.310;2023-05-25T09:17:37;8.65;;;6.75;;
28910;SDS011;16028;42.642;23.310;2023-05-25T09:20:10;8.07;;;5.53;;
28910;SDS011;16028;42.642;23.310;2023-05-25T09:22:38;5.85;;;3.88;;
28910;SDS011;16028;42.642;23.310;2023-05-25T09:25:23;7.20;;;3.90;;
28910;SDS011;16028;42.642;23.310;2023-05-25T09:27:52;5.85;;;4.25;;
28910;SDS011;16028;42.642;23.310;2023-05-25T09:30:20;7.05;;;4.38;;
28910;SDS011;16028;42.642;23.310;2023-05-25T09:32:48;5.15;;;4.65;;
28910;SDS011;16028;42.642;23.310;2023-05-25T09:35:25;5.70;;;4.65;;
28910;SDS011;16028;42.642;23.310;2023-05-25T09:37:52;8.50;;;4.60;;
28910;SDS011;16028;42.642;23.310;2023-05-25T09:40:21;7.40;;;4.38;;
28910;SDS011;16028;42.642;23.310;2023-05-25T09:42:48;5.30;;;4.80;;
28910;SDS011;16028;42.642;23.310;2023-05-25T09:45:15;9.27;;;5.63;;
28910;SDS011;16028;42.642;23.310;2023-05-25T09:47:42;9.70;;;4.80;;
28910;SDS011;16028;42.642;23.310;2023-05-25T09:50:09;6.15;;;4.82;;
28910;SDS011;16028;42.642;23.310;2023-05-25T09:52:39;7.25;;;5.13;;
28910;SDS011;16028;42.642;23.310;2023-05-25T09:55:07;7.35;;;5.00;;
28910;SDS011;16028;42.642;23.310;2023-05-25T09:57:36;7.72;;;5.20;;
28910;SDS011;16028;42.642;23.310;2023-05-25T10:00:07;9.63;;;5.78;;
28910;SDS011;16028;42.642;23.310;2023-05-25T10:02:35;6.82;;;5.63;;
28910;SDS011;16028;42.642;23.310;2023-05-25T10:05:03;6.40;;;5.65;;
28910;SDS011;16028;42.642;23.310;2023-05-25T10:07:31;6.25;;;5.65;;
28910;SDS011;16028;42.642;23.310;2023-05-25T10:10:01;6.05;;;5.10;;
28910;SDS011;16028;42.642;23.310;2023-05-25T10:12:32;9.48;;;5.97;;
28910;SDS011;16028;42.642;23.310;2023-05-25T10:15:01;7.78;;;6.88;;
28910;SDS011;16028;42.642;23.310;2023-05-25T10:17:30;12.02;;;6.68;;
28910;SDS011;16028;42.642;23.310;2023-05-25T10:20:01;13.23;;;5.60;;
28910;SDS011;16028;42.642;23.310;2023-05-25T10:22:31;18.30;;;5.55;;
28910;SDS011;16028;42.642;23.310;2023-05-25T10:25:05;8.40;;;4.78;;
28910;SDS011;16028;42.642;23.310;2023-05-25T10:27:37;6.55;;;5.65;;
28910;SDS011;16028;42.642;23.310;2023-05-25T10:30:07;6.90;;;5.55;;
28910;SDS011;16028;42.642;23.310;2023-05-25T10:32:35;11.02;;;6.30;;
28910;SDS011;16028;42.642;23.310;2023-05-25T10:35:04;9.35;;;6.35;;
28910;SDS011;16028;42.642;23.310;2023-05-25T10:37:31;9.55;;;7.18;;
28910;SDS011;16028;42.642;23.310;2023-05-25T10:39:59;10.70;;;8.15;;
28910;SDS011;16028;42.642;23.310;2023-05-25T10:42:31;8.27;;;6.45;;
28910;SDS011;16028;42.642;23.310;2023-05-25T10:45:00;9.27;;;6.70;;
28910;SDS011;16028;42.642;23.310;2023-05-25T10:47:28;8.05;;;5.90;;
28910;SDS011;16028;42.642;23.310;2023-05-25T10:49:56;9.55;;;6.22;;
28910;SDS011;16028;42.642;23.310;2023-05-25T10:52:27;7.72;;;6.55;;
28910;SDS011;16028;42.642;23.310;2023-05-25T10:54:58;9.02;;;6.50;;
28910;SDS011;16028;42.642;23.310;2023-05-25T10:57:28;9.90;;;7.65;;
28910;SDS011;16028;42.642;23.310;2023-05-25T11:00:01;9.43;;;7.00;;
28910;SDS011;16028;42.642;23.310;2023-05-25T11:02:39;14.00;;;7.53;;
28910;SDS011;16028;42.642;23.310;2023-05-25T11:05:30;14.40;;;7.88;;
28910;SDS011;16028;42.642;23.310;2023-05-25T11:07:58;11.30;;;8.13;;
28910;SDS011;16028;42.642;23.310;2023-05-25T11:13:36;18.45;;;8.40;;
28910;SDS011;16028;42.642;23.310;2023-05-25T11:16:18;12.80;;;8.02;;
28910;SDS011;16028;42.642;23.310;2023-05-25T11:18:49;13.93;;;8.75;;
28910;SDS011;16028;42.642;23.310;2023-05-25T11:21:22;15.98;;;7.95;;
28910;SDS011;16028;42.642;23.310;2023-05-25T11:24:10;20.75;;;7.40;;
28910;SDS011;16028;42.642;23.310;2023-05-25T11:26:51;13.30;;;8.20;;
28910;SDS011;16028;42.642;23.310;2023-05-25T11:29:19;9.63;;;7.40;;
28910;SDS011;16028;42.642;23.310;2023-05-25T11:31:52;14.50;;;8.13;;
28910;SDS011;16028;42.642;23.310;2023-05-25T11:34:20;16.60;;;7.82;;
28910;SDS011;16028;42.642;23.310;2023-05-25T11:36:51;12.10;;;7.47;;
28910;SDS011;16028;42.642;23.310;2023-05-25T11:39:19;17.38;;;7.38;;
28910;SDS011;16028;42.642;23.310;2023-05-25T11:41:47;12.30;;;7.05;;
28910;SDS011;16028;42.642;23.310;2023-05-25T11:44:24;17.85;;;7.57;;
28910;SDS011;16028;42.642;23.310;2023-05-25T11:49:22;8.48;;;7.15;;
28910;SDS011;16028;42.642;23.310;2023-05-25T11:51:49;15.27;;;7.60;;
28910;SDS011;16028;42.642;23.310;2023-05-25T11:54:21;11.57;;;7.28;;
28910;SDS011;16028;42.642;23.310;2023-05-25T11:56:49;12.05;;;6.47;;
28910;SDS011;16028;42.642;23.310;2023-05-25T11:59:16;8.35;;;6.38;;
28910;SDS011;16028;42.642;23.310;2023-05-25T12:01:55;8.98;;;6.32;;
28910;SDS011;16028;42.642;23.310;2023-05-25T12:04:22;9.80;;;6.05;;
28910;SDS011;16028;42.642;23.310;2023-05-25T12:06:49;14.40;;;5.32;;
28910;SDS011;16028;42.642;23.310;2023-05-25T12:09:17;11.63;;;4.57;;
28910;SDS011;16028;42.642;23.310;2023-05-25T12:11:45;7.18;;;5.60;;
28910;SDS011;16028;42.642;23.310;2023-05-25T12:14:12;15.10;;;5.38;;
28910;SDS011;16028;42.642;23.310;2023-05-25T12:16:39;11.98;;;5.88;;
28910;SDS011;16028;42.642;23.310;2023-05-25T12:19:08;10.63;;;6.07;;
28910;SDS011;16028;42.642;23.310;2023-05-25T12:21:36;9.60;;;5.60;;
28910;SDS011;16028;42.642;23.310;2023-05-25T12:24:04;6.05;;;4.47;;
28910;SDS011;16028;42.642;23.310;2023-05-25T12:26:32;10.93;;;4.50;;
28910;SDS011;16028;42.642;23.310;2023-05-25T12:28:59;9.15;;;4.55;;
28910;SDS011;16028;42.642;23.310;2023-05-25T12:31:27;7.95;;;4.88;;
28910;SDS011;16028;42.642;23.310;2023-05-25T12:34:06;7.88;;;4.28;;
28910;SDS011;16028;42.642;23.310;2023-05-25T12:36:39;9.60;;;4.07;;
28910;SDS011;16028;42.642;23.310;2023-05-25T12:39:11;5.10;;;3.75;;
28910;SDS011;16028;42.642;23.310;2023-05-25T12:41:45;10.35;;;3.97;;
28910;SDS011;16028;42.642;23.310;2023-05-25T12:44:21;6.63;;;3.95;;
28910;SDS011;16028;42.642;23.310;2023-05-25T12:46:49;8.38;;;4.30;;
28910;SDS011;16028;42.642;23.310;2023-05-25T12:49:28;6.53;;;3.83;;
28910;SDS011;16028;42.642;23.310;2023-05-25T12:51:56;9.85;;;3.95;;
28910;SDS011;16028;42.642;23.310;2023-05-25T12:54:37;7.18;;;4.07;;
28910;SDS011;16028;42.642;23.310;2023-05-25T12:57:09;6.95;;;3.40;;
28910;SDS011;16028;42.642;23.310;2023-05-25T12:59:38;9.88;;;3.97;;
28910;SDS011;16028;42.642;23.310;2023-05-25T13:02:05;9.80;;;4.95;;
28910;SDS011;16028;42.642;23.310;2023-05-25T13:04:34;8.20;;;3.88;;
28910;SDS011;16028;42.642;23.310;2023-05-25T13:07:04;6.55;;;3.30;;
28910;SDS011;16028;42.642;23.310;2023-05-25T13:09:31;5.15;;;3.28;;
28910;SDS011;16028;42.642;23.310;2023-05-25T13:11:58;5.53;;;3.20;;
28910;SDS011;16028;42.642;23.310;2023-05-25T13:14:26;8.93;;;3.55;;
28910;SDS011;16028;42.642;23.310;2023-05-25T13:16:54;7.05;;;3.58;;
28910;SDS011;16028;42.642;23.310;2023-05-25T13:19:22;5.95;;;3.38;;
28910;SDS011;16028;42.642;23.310;2023-05-25T13:21:51;5.90;;;3.92;;
28910;SDS011;16028;42.642;23.310;2023-05-25T13:24:20;5.72;;;3.08;;
28910;SDS011;16028;42.642;23.310;2023-05-25T13:26:47;5.53;;;3.72;;
28910;SDS011;16028;42.642;23.310;2023-05-25T13:29:14;5.45;;;3.30;;
28910;SDS011;16028;42.642;23.310;2023-05-25T13:31:41;5.57;;;3.13;;
28910;SDS011;16028;42.642;23.310;2023-05-25T13:34:12;4.32;;;3.00;;
28910;SDS011;16028;42.642;23.310;2023-05-25T13:36:39;3.38;;;2.63;;
28910;SDS011;16028;42.642;23.310;2023-05-25T13:39:08;3.53;;;2.80;;
28910;SDS011;16028;42.642;23.310;2023-05-25T13:41:37;5.80;;;2.58;;
28910;SDS011;16028;42.642;23.310;2023-05-25T13:44:04;4.82;;;2.83;;
28910;SDS011;16028;42.642;23.310;2023-05-25T13:46:31;8.23;;;3.35;;
28910;SDS011;16028;42.642;23.310;2023-05-25T13:48:59;4.78;;;3.10;;
28910;SDS011;16028;42.642;23.310;2023-05-25T13:51:26;8.13;;;3.28;;
28910;SDS011;16028;42.642;23.310;2023-05-25T13:53:53;6.88;;;2.53;;
28910;SDS011;16028;42.642;23.310;2023-05-25T13:56:21;2.95;;;2.58;;
28910;SDS011;16028;42.642;23.310;2023-05-25T13:58:48;4.30;;;2.80;;
28910;SDS011;16028;42.642;23.310;2023-05-25T14:01:15;3.08;;;2.30;;
28910;SDS011;16028;42.642;23.310;2023-05-25T14:03:41;5.95;;;2.50;;
28910;SDS011;16028;42.642;23.310;2023-05-25T14:06:09;2.90;;;2.38;;
28910;SDS011;16028;42.642;23.310;2023-05-25T14:08:36;3.47;;;2.65;;
28910;SDS011;16028;42.642;23.310;2023-05-25T14:11:03;4.00;;;2.80;;
28910;SDS011;16028;42.642;23.310;2023-05-25T14:13:31;5.03;;;2.58;;
28910;SDS011;16028;42.642;23.310;2023-05-25T14:16:00;2.90;;;2.60;;
28910;SDS011;16028;42.642;23.310;2023-05-25T14:18:27;3.35;;;2.30;;
28910;SDS011;16028;42.642;23.310;2023-05-25T14:20:54;5.80;;;2.78;;
28910;SDS011;16028;42.642;23.310;2023-05-25T14:23:20;6.25;;;2.40;;
28910;SDS011;16028;42.642;23.310;2023-05-25T14:25:48;2.75;;;2.38;;
28910;SDS011;16028;42.642;23.310;2023-05-25T14:28:14;4.65;;;2.67;;
28910;SDS011;16028;42.642;23.310;2023-05-25T14:30:43;3.95;;;2.50;;
28910;SDS011;16028;42.642;23.310;2023-05-25T14:33:09;4.78;;;2.55;;
28910;SDS011;16028;42.642;23.310;2023-05-25T14:35:38;10.88;;;2.50;;
28910;SDS011;16028;42.642;23.310;2023-05-25T14:38:06;4.15;;;2.53;;